sensor_id;sensor_type;location;lat;lon;timestamp;P1;durP1;ratioP1;P2;durP2;ratioP2
65684;SDS011;52405;50.844;-1.062;2023-01-10T00:01:34;31.05;;;5.43;;
65684;SDS011;52405;50.844;-1.062;2023-01-10T00:04:00;22.95;;;7.15;;
65684;SDS011;52405;50.844;-1.062;2023-01-10T00:06:33;18.23;;;7.07;;
65684;SDS011;52405;50.844;-1.062;2023-01-10T00:09:01;43.15;;;7.97;;
65684;SDS011;52405;50.844;-1.062;2023-01-10T00:11:26;23.13;;;6.88;;
65684;SDS011;52405;50.844;-1.062;2023-01-10T00:14:10;32.35;;;6.65;;
65684;SDS011;52405;50.844;-1.062;2023-01-10T00:16:36;23.45;;;7.70;;
65684;SDS011;52405;50.844;-1.062;2023-01-10T00:19:03;22.73;;;7.03;;
65684;SDS011;52405;50.844;-1.062;2023-01-10T00:21:29;20.52;;;6.40;;
65684;SDS011;52405;50.844;-1.062;2023-01-10T00:23:57;27.02;;;6.60;;
65684;SDS011;52405;50.844;-1.062;2023-01-10T00:26:25;18.77;;;5.50;;
65684;SDS011;52405;50.844;-1.062;2023-01-10T00:28:50;18.13;;;6.53;;
65684;SDS011;52405;50.844;-1.062;2023-01-10T00:31:16;31.63;;;5.65;;
65684;SDS011;52405;50.844;-1.062;2023-01-10T00:33:46;16.92;;;4.03;;
65684;SDS011;52405;50.844;-1.062;2023-01-10T00:36:12;37.25;;;7.82;;
65684;SDS011;52405;50.844;-1.062;2023-01-10T00:38:37;18.38;;;5.72;;
65684;SDS011;52405;50.844;-1.062;2023-01-10T00:41:03;25.52;;;4.97;;
65684;SDS011;52405;50.844;-1.062;2023-01-10T00:43:48;18.60;;;5.75;;
65684;SDS011;52405;50.844;-1.062;2023-01-10T00:46:23;13.65;;;4.13;;
65684;SDS011;52405;50.844;-1.062;2023-01-10T00:48:51;16.35;;;4.30;;
65684;SDS011;52405;50.844;-1.062;2023-01-10T00:51:21;15.80;;;4.18;;
65684;SDS011;52405;50.844;-1.062;2023-01-10T00:53:49;17.98;;;3.80;;
65684;SDS011;52405;50.844;-1.062;2023-01-10T00:56:14;23.40;;;3.58;;
65684;SDS011;52405;50.844;-1.062;2023-01-10T00:58:40;17.45;;;4.50;;
65684;SDS011;52405;50.844;-1.062;2023-01-10T01:01:06;16.75;;;4.75;;
65684;SDS011;52405;50.844;-1.062;2023-01-10T01:03:31;14.70;;;3.78;;
65684;SDS011;52405;50.844;-1.062;2023-01-10T01:06:02;21.92;;;5.28;;
65684;SDS011;52405;50.844;-1.062;2023-01-10T01:08:30;22.73;;;4.03;;
65684;SDS011;52405;50.844;-1.062;2023-01-10T01:10:56;16.27;;;3.55;;
65684;SDS011;52405;50.844;-1.062;2023-01-10T01:13:21;16.13;;;4.88;;
65684;SDS011;52405;50.844;-1.062;2023-01-10T01:15:47;19.70;;;4.40;;
65684;SDS011;52405;50.844;-1.062;2023-01-10T01:18:14;17.65;;;4.28;;
65684;SDS011;52405;50.844;-1.062;2023-01-10T01:20:43;16.95;;;5.70;;
65684;SDS011;52405;50.844;-1.062;2023-01-10T01:23:10;15.48;;;3.65;;
65684;SDS011;52405;50.844;-1.062;2023-01-10T01:25:36;14.43;;;5.35;;
65684;SDS011;52405;50.844;-1.062;2023-01-10T01:28:01;21.40;;;3.90;;
65684;SDS011;52405;50.844;-1.062;2023-01-10T01:30:32;13.05;;;3.75;;
65684;SDS011;52405;50.844;-1.062;2023-01-10T01:33:00;17.58;;;4.57;;
65684;SDS011;52405;50.844;-1.062;2023-01-10T01:35:25;19.50;;;3.70;;
65684;SDS011;52405;50.844;-1.062;2023-01-10T01:37:51;18.52;;;4.40;;
65684;SDS011;52405;50.844;-1.062;2023-01-10T01:40:18;20.77;;;4.93;;
65684;SDS011;52405;50.844;-1.062;2023-01-10T01:42:45;17.48;;;3.65;;
65684;SDS011;52405;50.844;-1.062;2023-01-10T01:53:01;15.27;;;3.47;;
65684;SDS011;52405;50.844;-1.062;2023-01-10T01:55:34;18.95;;;4.30;;
65684;SDS011;52405;50.844;-1.062;2023-01-10T01:58:03;25.20;;;4.03;;
65684;SDS011;52405;50.844;-1.062;2023-01-10T02:00:34;21.48;;;5.22;;
65684;SDS011;52405;50.844;-1.062;2023-01-10T02:02:59;17.52;;;3.50;;
65684;SDS011;52405;50.844;-1.062;2023-01-10T02:05:26;21.58;;;3.72;;
65684;SDS011;52405;50.844;-1.062;2023-01-10T02:07:54;24.50;;;3.95;;
65684;SDS011;52405;50.844;-1.062;2023-01-10T02:10:24;15.45;;;3.10;;
65684;SDS011;52405;50.844;-1.062;2023-01-10T02:12:57;17.38;;;4.55;;
65684;SDS011;52405;50.844;-1.062;2023-01-10T02:15:27;16.88;;;5.80;;
65684;SDS011;52405;50.844;-1.062;2023-01-10T02:17:55;20.48;;;4.82;;
65684;SDS011;52405;50.844;-1.062;2023-01-10T02:20:27;19.95;;;3.88;;
65684;SDS011;52405;50.844;-1.062;2023-01-10T02:33:43;27.00;;;9.35;;
65684;SDS011;52405;50.844;-1.062;2023-01-10T02:39:20;18.67;;;4.80;;
65684;SDS011;52405;50.844;-1.062;2023-01-10T02:44:30;23.97;;;6.17;;
65684;SDS011;52405;50.844;-1.062;2023-01-10T02:47:03;25.58;;;5.85;;
65684;SDS011;52405;50.844;-1.062;2023-01-10T02:49:43;18.83;;;4.53;;
65684;SDS011;52405;50.844;-1.062;2023-01-10T02:52:17;24.48;;;4.70;;
65684;SDS011;52405;50.844;-1.062;2023-01-10T02:54:46;21.50;;;4.43;;
65684;SDS011;52405;50.844;-1.062;2023-01-10T02:59:55;18.75;;;5.22;;
65684;SDS011;52405;50.844;-1.062;2023-01-10T03:10:52;23.67;;;4.82;;
65684;SDS011;52405;50.844;-1.062;2023-01-10T03:15:53;16.77;;;3.40;;
65684;SDS011;52405;50.844;-1.062;2023-01-10T03:18:27;14.02;;;3.22;;
65684;SDS011;52405;50.844;-1.062;2023-01-10T03:20:57;15.52;;;3.92;;
65684;SDS011;52405;50.844;-1.062;2023-01-10T03:23:25;14.60;;;3.45;;
65684;SDS011;52405;50.844;-1.062;2023-01-10T03:25:51;17.17;;;4.32;;
65684;SDS011;52405;50.844;-1.062;2023-01-10T03:28:22;14.20;;;3.30;;
65684;SDS011;52405;50.844;-1.062;2023-01-10T03:30:57;17.13;;;4.15;;
65684;SDS011;52405;50.844;-1.062;2023-01-10T03:33:29;20.27;;;3.75;;
65684;SDS011;52405;50.844;-1.062;2023-01-10T03:38:56;19.00;;;3.88;;
65684;SDS011;52405;50.844;-1.062;2023-01-10T03:41:35;11.75;;;2.78;;
65684;SDS011;52405;50.844;-1.062;2023-01-10T03:46:59;18.02;;;3.20;;
65684;SDS011;52405;50.844;-1.062;2023-01-10T03:49:30;20.08;;;5.30;;
65684;SDS011;52405;50.844;-1.062;2023-01-10T03:52:00;26.00;;;4.95;;
65684;SDS011;52405;50.844;-1.062;2023-01-10T03:54:27;16.60;;;3.70;;
65684;SDS011;52405;50.844;-1.062;2023-01-10T03:56:53;21.17;;;6.13;;
65684;SDS011;52405;50.844;-1.062;2023-01-10T03:59:20;15.60;;;3.70;;
65684;SDS011;52405;50.844;-1.062;2023-01-10T04:01:52;20.60;;;4.80;;
65684;SDS011;52405;50.844;-1.062;2023-01-10T04:04:19;14.93;;;3.55;;
65684;SDS011;52405;50.844;-1.062;2023-01-10T04:06:45;15.20;;;4.30;;
65684;SDS011;52405;50.844;-1.062;2023-01-10T04:09:11;11.38;;;3.83;;
65684;SDS011;52405;50.844;-1.062;2023-01-10T04:11:37;15.50;;;4.22;;
65684;SDS011;52405;50.844;-1.062;2023-01-10T04:14:02;15.32;;;4.32;;
65684;SDS011;52405;50.844;-1.062;2023-01-10T04:16:30;17.13;;;6.05;;
65684;SDS011;52405;50.844;-1.062;2023-01-10T04:18:56;18.38;;;4.43;;
65684;SDS011;52405;50.844;-1.062;2023-01-10T04:21:21;15.70;;;3.75;;
65684;SDS011;52405;50.844;-1.062;2023-01-10T04:23:49;14.65;;;3.78;;
65684;SDS011;52405;50.844;-1.062;2023-01-10T04:26:15;17.15;;;3.38;;
65684;SDS011;52405;50.844;-1.062;2023-01-10T04:28:40;13.48;;;3.33;;
65684;SDS011;52405;50.844;-1.062;2023-01-10T04:31:06;17.63;;;4.25;;
65684;SDS011;52405;50.844;-1.062;2023-01-10T04:33:31;15.68;;;4.35;;
65684;SDS011;52405;50.844;-1.062;2023-01-10T04:35:57;21.38;;;4.45;;
65684;SDS011;52405;50.844;-1.062;2023-01-10T04:38:22;19.70;;;4.93;;
65684;SDS011;52405;50.844;-1.062;2023-01-10T04:40:53;26.00;;;4.53;;
65684;SDS011;52405;50.844;-1.062;2023-01-10T04:43:20;12.20;;;3.60;;
65684;SDS011;52405;50.844;-1.062;2023-01-10T04:45:47;14.85;;;3.85;;
65684;SDS011;52405;50.844;-1.062;2023-01-10T04:48:12;17.92;;;3.53;;
65684;SDS011;52405;50.844;-1.062;2023-01-10T04:50:38;26.42;;;3.58;;
65684;SDS011;52405;50.844;-1.062;2023-01-10T04:53:06;13.52;;;3.90;;
65684;SDS011;52405;50.844;-1.062;2023-01-10T04:55:32;23.92;;;4.70;;
65684;SDS011;52405;50.844;-1.062;2023-01-10T04:57:58;18.77;;;4.00;;
65684;SDS011;52405;50.844;-1.062;2023-01-10T05:00:24;27.60;;;4.95;;
65684;SDS011;52405;50.844;-1.062;2023-01-10T05:02:54;20.83;;;5.15;;
65684;SDS011;52405;50.844;-1.062;2023-01-10T05:05:20;23.08;;;4.25;;
65684;SDS011;52405;50.844;-1.062;2023-01-10T05:07:48;26.08;;;4.22;;
65684;SDS011;52405;50.844;-1.062;2023-01-10T05:10:14;34.70;;;4.80;;
65684;SDS011;52405;50.844;-1.062;2023-01-10T05:12:39;24.30;;;5.65;;
65684;SDS011;52405;50.844;-1.062;2023-01-10T05:15:08;36.08;;;7.82;;
65684;SDS011;52405;50.844;-1.062;2023-01-10T05:17:33;19.10;;;4.20;;
65684;SDS011;52405;50.844;-1.062;2023-01-10T05:19:59;20.83;;;3.92;;
65684;SDS011;52405;50.844;-1.062;2023-01-10T05:22:27;18.85;;;3.72;;
65684;SDS011;52405;50.844;-1.062;2023-01-10T05:24:52;21.95;;;4.38;;
65684;SDS011;52405;50.844;-1.062;2023-01-10T05:27:20;27.20;;;4.03;;
65684;SDS011;52405;50.844;-1.062;2023-01-10T05:29:48;21.98;;;4.82;;
65684;SDS011;52405;50.844;-1.062;2023-01-10T05:32:13;26.48;;;5.32;;
65684;SDS011;52405;50.844;-1.062;2023-01-10T05:34:39;24.23;;;3.92;;
65684;SDS011;52405;50.844;-1.062;2023-01-10T05:37:05;14.70;;;3.65;;
65684;SDS011;52405;50.844;-1.062;2023-01-10T05:39:30;25.40;;;4.63;;
65684;SDS011;52405;50.844;-1.062;2023-01-10T05:41:56;19.60;;;3.38;;
65684;SDS011;52405;50.844;-1.062;2023-01-10T05:44:24;21.45;;;4.70;;
65684;SDS011;52405;50.844;-1.062;2023-01-10T05:46:52;25.15;;;3.67;;
65684;SDS011;52405;50.844;-1.062;2023-01-10T05:49:20;13.98;;;3.92;;
65684;SDS011;52405;50.844;-1.062;2023-01-10T05:51:45;17.80;;;4.40;;
65684;SDS011;52405;50.844;-1.062;2023-01-10T05:54:11;26.25;;;4.43;;
65684;SDS011;52405;50.844;-1.062;2023-01-10T05:56:41;18.80;;;5.40;;
65684;SDS011;52405;50.844;-1.062;2023-01-10T05:59:09;21.27;;;4.85;;
65684;SDS011;52405;50.844;-1.062;2023-01-10T06:01:37;17.20;;;4.95;;
65684;SDS011;52405;50.844;-1.062;2023-01-10T06:04:02;27.00;;;4.40;;
65684;SDS011;52405;50.844;-1.062;2023-01-10T06:06:28;20.48;;;5.32;;
65684;SDS011;52405;50.844;-1.062;2023-01-10T06:08:58;24.58;;;4.50;;
65684;SDS011;52405;50.844;-1.062;2023-01-10T06:11:24;27.27;;;4.10;;
65684;SDS011;52405;50.844;-1.062;2023-01-10T06:13:54;24.67;;;5.88;;
65684;SDS011;52405;50.844;-1.062;2023-01-10T06:16:20;27.23;;;5.05;;
65684;SDS011;52405;50.844;-1.062;2023-01-10T06:18:48;22.25;;;3.55;;
65684;SDS011;52405;50.844;-1.062;2023-01-10T06:21:14;18.98;;;4.07;;
65684;SDS011;52405;50.844;-1.062;2023-01-10T06:23:39;19.50;;;5.68;;
65684;SDS011;52405;50.844;-1.062;2023-01-10T06:26:05;25.80;;;5.50;;
65684;SDS011;52405;50.844;-1.062;2023-01-10T06:28:31;24.33;;;4.10;;
65684;SDS011;52405;50.844;-1.062;2023-01-10T06:30:56;19.65;;;4.18;;
65684;SDS011;52405;50.844;-1.062;2023-01-10T06:33:22;19.95;;;3.80;;
65684;SDS011;52405;50.844;-1.062;2023-01-10T06:35:47;15.10;;;2.75;;
65684;SDS011;52405;50.844;-1.062;2023-01-10T06:38:13;11.90;;;2.83;;
65684;SDS011;52405;50.844;-1.062;2023-01-10T06:40:39;15.38;;;3.00;;
65684;SDS011;52405;50.844;-1.062;2023-01-10T06:43:05;18.40;;;3.70;;
65684;SDS011;52405;50.844;-1.062;2023-01-10T06:45:31;20.10;;;3.85;;
65684;SDS011;52405;50.844;-1.062;2023-01-10T06:47:56;17.77;;;3.35;;
65684;SDS011;52405;50.844;-1.062;2023-01-10T06:50:22;21.15;;;2.78;;
65684;SDS011;52405;50.844;-1.062;2023-01-10T06:52:55;16.77;;;3.30;;
65684;SDS011;52405;50.844;-1.062;2023-01-10T06:55:24;14.88;;;3.60;;
65684;SDS011;52405;50.844;-1.062;2023-01-10T06:57:56;17.77;;;3.80;;
65684;SDS011;52405;50.844;-1.062;2023-01-10T07:00:23;21.88;;;4.65;;
65684;SDS011;52405;50.844;-1.062;2023-01-10T07:02:51;21.67;;;3.22;;
65684;SDS011;52405;50.844;-1.062;2023-01-10T07:05:18;21.65;;;2.53;;
65684;SDS011;52405;50.844;-1.062;2023-01-10T07:07:45;19.63;;;5.28;;
65684;SDS011;52405;50.844;-1.062;2023-01-10T07:10:10;28.30;;;4.35;;
65684;SDS011;52405;50.844;-1.062;2023-01-10T07:12:38;19.90;;;3.92;;
65684;SDS011;52405;50.844;-1.062;2023-01-10T07:15:04;20.15;;;4.65;;
65684;SDS011;52405;50.844;-1.062;2023-01-10T07:17:30;16.60;;;3.03;;
65684;SDS011;52405;50.844;-1.062;2023-01-10T07:19:55;22.00;;;3.00;;
65684;SDS011;52405;50.844;-1.062;2023-01-10T07:22:21;20.80;;;3.95;;
65684;SDS011;52405;50.844;-1.062;2023-01-10T07:24:47;15.63;;;2.92;;
65684;SDS011;52405;50.844;-1.062;2023-01-10T07:27:12;14.45;;;3.08;;
65684;SDS011;52405;50.844;-1.062;2023-01-10T07:29:37;17.20;;;3.85;;
65684;SDS011;52405;50.844;-1.062;2023-01-10T07:32:05;18.65;;;3.40;;
65684;SDS011;52405;50.844;-1.062;2023-01-10T07:34:31;10.93;;;2.72;;
65684;SDS011;52405;50.844;-1.062;2023-01-10T07:36:56;10.63;;;2.33;;
65684;SDS011;52405;50.844;-1.062;2023-01-10T07:39:25;8.65;;;2.53;;
65684;SDS011;52405;50.844;-1.062;2023-01-10T07:41:53;17.85;;;2.25;;
65684;SDS011;52405;50.844;-1.062;2023-01-10T07:44:19;13.05;;;2.45;;
65684;SDS011;52405;50.844;-1.062;2023-01-10T07:46:44;11.77;;;2.15;;
65684;SDS011;52405;50.844;-1.062;2023-01-10T07:49:13;9.77;;;2.55;;
65684;SDS011;52405;50.844;-1.062;2023-01-10T07:51:39;12.32;;;2.70;;
65684;SDS011;52405;50.844;-1.062;2023-01-10T07:54:04;17.92;;;2.30;;
65684;SDS011;52405;50.844;-1.062;2023-01-10T07:56:30;13.75;;;2.08;;
65684;SDS011;52405;50.844;-1.062;2023-01-10T07:58:56;5.10;;;1.63;;
65684;SDS011;52405;50.844;-1.062;2023-01-10T08:01:25;11.27;;;2.25;;
65684;SDS011;52405;50.844;-1.062;2023-01-10T08:03:50;10.68;;;1.60;;
65684;SDS011;52405;50.844;-1.062;2023-01-10T08:06:16;6.32;;;1.38;;
65684;SDS011;52405;50.844;-1.062;2023-01-10T08:08:41;8.05;;;2.45;;
65684;SDS011;52405;50.844;-1.062;2023-01-10T08:11:07;8.18;;;1.00;;
65684;SDS011;52405;50.844;-1.062;2023-01-10T08:13:33;5.78;;;1.33;;
65684;SDS011;52405;50.844;-1.062;2023-01-10T08:15:58;8.80;;;1.70;;
65684;SDS011;52405;50.844;-1.062;2023-01-10T08:18:31;2.97;;;1.50;;
65684;SDS011;52405;50.844;-1.062;2023-01-10T08:20:57;14.63;;;1.83;;
65684;SDS011;52405;50.844;-1.062;2023-01-10T08:23:23;8.25;;;1.70;;
65684;SDS011;52405;50.844;-1.062;2023-01-10T08:25:49;6.63;;;1.67;;
65684;SDS011;52405;50.844;-1.062;2023-01-10T08:28:15;3.75;;;1.40;;
65684;SDS011;52405;50.844;-1.062;2023-01-10T08:30:43;9.35;;;1.60;;
65684;SDS011;52405;50.844;-1.062;2023-01-10T08:33:12;11.02;;;1.83;;
65684;SDS011;52405;50.844;-1.062;2023-01-10T08:35:41;9.20;;;2.50;;
65684;SDS011;52405;50.844;-1.062;2023-01-10T08:38:10;10.57;;;2.05;;
65684;SDS011;52405;50.844;-1.062;2023-01-10T08:40:36;13.45;;;2.42;;
65684;SDS011;52405;50.844;-1.062;2023-01-10T08:43:04;9.23;;;1.95;;
65684;SDS011;52405;50.844;-1.062;2023-01-10T08:45:31;13.50;;;2.22;;
65684;SDS011;52405;50.844;-1.062;2023-01-10T08:48:01;8.68;;;2.05;;
65684;SDS011;52405;50.844;-1.062;2023-01-10T08:50:30;9.18;;;1.42;;
65684;SDS011;52405;50.844;-1.062;2023-01-10T08:52:58;10.75;;;2.65;;
65684;SDS011;52405;50.844;-1.062;2023-01-10T08:55:27;8.10;;;2.05;;
65684;SDS011;52405;50.844;-1.062;2023-01-10T08:57:53;16.02;;;2.72;;
65684;SDS011;52405;50.844;-1.062;2023-01-10T09:00:19;14.32;;;2.45;;
65684;SDS011;52405;50.844;-1.062;2023-01-10T09:02:47;10.75;;;2.30;;
65684;SDS011;52405;50.844;-1.062;2023-01-10T09:05:13;9.13;;;2.00;;
65684;SDS011;52405;50.844;-1.062;2023-01-10T09:07:38;7.65;;;2.50;;
65684;SDS011;52405;50.844;-1.062;2023-01-10T09:10:06;20.30;;;2.40;;
65684;SDS011;52405;50.844;-1.062;2023-01-10T09:12:33;13.63;;;2.33;;
65684;SDS011;52405;50.844;-1.062;2023-01-10T09:15:17;6.03;;;2.00;;
65684;SDS011;52405;50.844;-1.062;2023-01-10T09:17:43;8.20;;;1.50;;
65684;SDS011;52405;50.844;-1.062;2023-01-10T09:20:10;12.63;;;3.22;;
65684;SDS011;52405;50.844;-1.062;2023-01-10T09:22:36;8.57;;;2.10;;
65684;SDS011;52405;50.844;-1.062;2023-01-10T09:25:03;8.25;;;1.88;;
65684;SDS011;52405;50.844;-1.062;2023-01-10T09:27:30;9.90;;;1.80;;
65684;SDS011;52405;50.844;-1.062;2023-01-10T09:29:56;11.25;;;1.80;;
65684;SDS011;52405;50.844;-1.062;2023-01-10T09:32:22;9.15;;;3.22;;
65684;SDS011;52405;50.844;-1.062;2023-01-10T09:34:47;8.00;;;1.65;;
65684;SDS011;52405;50.844;-1.062;2023-01-10T09:37:15;17.05;;;2.72;;
65684;SDS011;52405;50.844;-1.062;2023-01-10T09:39:41;22.30;;;9.00;;
65684;SDS011;52405;50.844;-1.062;2023-01-10T09:47:47;15.45;;;2.20;;
65684;SDS011;52405;50.844;-1.062;2023-01-10T09:52:57;20.70;;;3.20;;
65684;SDS011;52405;50.844;-1.062;2023-01-10T09:55:30;18.10;;;2.92;;
65684;SDS011;52405;50.844;-1.062;2023-01-10T09:57:59;13.13;;;6.50;;
65684;SDS011;52405;50.844;-1.062;2023-01-10T10:00:38;13.50;;;3.28;;
65684;SDS011;52405;50.844;-1.062;2023-01-10T10:03:29;13.23;;;6.05;;
65684;SDS011;52405;50.844;-1.062;2023-01-10T10:06:01;14.27;;;3.03;;
65684;SDS011;52405;50.844;-1.062;2023-01-10T10:08:27;9.98;;;2.67;;
65684;SDS011;52405;50.844;-1.062;2023-01-10T10:10:59;7.20;;;1.65;;
65684;SDS011;52405;50.844;-1.062;2023-01-10T10:16:08;9.55;;;1.70;;
65684;SDS011;52405;50.844;-1.062;2023-01-10T10:24:34;7.90;;;3.00;;
65684;SDS011;52405;50.844;-1.062;2023-01-10T10:27:12;10.38;;;2.60;;
65684;SDS011;52405;50.844;-1.062;2023-01-10T10:35:38;7.93;;;2.92;;
65684;SDS011;52405;50.844;-1.062;2023-01-10T10:38:09;8.02;;;2.28;;
65684;SDS011;52405;50.844;-1.062;2023-01-10T10:40:42;11.32;;;3.53;;
65684;SDS011;52405;50.844;-1.062;2023-01-10T10:43:17;8.95;;;3.25;;
65684;SDS011;52405;50.844;-1.062;2023-01-10T10:46:08;16.27;;;2.47;;
65684;SDS011;52405;50.844;-1.062;2023-01-10T10:48:38;12.07;;;1.80;;
65684;SDS011;52405;50.844;-1.062;2023-01-10T10:51:16;17.13;;;2.92;;
65684;SDS011;52405;50.844;-1.062;2023-01-10T10:53:47;9.90;;;1.77;;
65684;SDS011;52405;50.844;-1.062;2023-01-10T10:56:14;10.43;;;2.88;;
65684;SDS011;52405;50.844;-1.062;2023-01-10T10:58:47;12.18;;;2.83;;
65684;SDS011;52405;50.844;-1.062;2023-01-10T11:01:19;13.40;;;2.72;;
65684;SDS011;52405;50.844;-1.062;2023-01-10T11:03:46;18.48;;;3.35;;
65684;SDS011;52405;50.844;-1.062;2023-01-10T11:06:13;17.70;;;4.18;;
65684;SDS011;52405;50.844;-1.062;2023-01-10T11:08:41;31.77;;;5.50;;
65684;SDS011;52405;50.844;-1.062;2023-01-10T11:14:04;27.00;;;6.15;;
65684;SDS011;52405;50.844;-1.062;2023-01-10T11:16:33;51.25;;;8.43;;
65684;SDS011;52405;50.844;-1.062;2023-01-10T11:19:08;40.50;;;6.78;;
65684;SDS011;52405;50.844;-1.062;2023-01-10T11:21:34;40.95;;;7.95;;
65684;SDS011;52405;50.844;-1.062;2023-01-10T11:24:02;50.15;;;8.18;;
65684;SDS011;52405;50.844;-1.062;2023-01-10T11:26:29;65.18;;;10.65;;
65684;SDS011;52405;50.844;-1.062;2023-01-10T11:29:23;55.42;;;10.82;;
65684;SDS011;52405;50.844;-1.062;2023-01-10T11:31:45;66.13;;;10.05;;
65684;SDS011;52405;50.844;-1.062;2023-01-10T11:34:32;59.40;;;11.90;;
65684;SDS011;52405;50.844;-1.062;2023-01-10T11:37:04;73.82;;;13.13;;
65684;SDS011;52405;50.844;-1.062;2023-01-10T11:39:45;62.33;;;10.38;;
65684;SDS011;52405;50.844;-1.062;2023-01-10T11:42:25;59.10;;;11.20;;
65684;SDS011;52405;50.844;-1.062;2023-01-10T11:44:54;57.95;;;12.02;;
65684;SDS011;52405;50.844;-1.062;2023-01-10T11:47:20;60.10;;;10.73;;
65684;SDS011;52405;50.844;-1.062;2023-01-10T11:49:46;72.38;;;11.18;;
65684;SDS011;52405;50.844;-1.062;2023-01-10T11:52:22;64.65;;;11.18;;
65684;SDS011;52405;50.844;-1.062;2023-01-10T11:54:52;61.05;;;11.32;;
65684;SDS011;52405;50.844;-1.062;2023-01-10T11:57:28;63.17;;;12.23;;
65684;SDS011;52405;50.844;-1.062;2023-01-10T12:00:03;52.70;;;9.27;;
65684;SDS011;52405;50.844;-1.062;2023-01-10T12:02:35;59.50;;;11.00;;
65684;SDS011;52405;50.844;-1.062;2023-01-10T12:05:08;43.88;;;9.98;;
65684;SDS011;52405;50.844;-1.062;2023-01-10T12:10:23;49.78;;;8.43;;
65684;SDS011;52405;50.844;-1.062;2023-01-10T12:12:55;48.97;;;10.98;;
65684;SDS011;52405;50.844;-1.062;2023-01-10T12:15:28;60.95;;;13.15;;
65684;SDS011;52405;50.844;-1.062;2023-01-10T12:17:56;57.38;;;12.02;;
65684;SDS011;52405;50.844;-1.062;2023-01-10T12:20:25;54.65;;;10.40;;
65684;SDS011;52405;50.844;-1.062;2023-01-10T12:23:01;65.65;;;12.63;;
65684;SDS011;52405;50.844;-1.062;2023-01-10T12:25:37;53.22;;;13.93;;
65684;SDS011;52405;50.844;-1.062;2023-01-10T12:28:17;54.85;;;10.93;;
65684;SDS011;52405;50.844;-1.062;2023-01-10T12:30:47;56.58;;;11.38;;
65684;SDS011;52405;50.844;-1.062;2023-01-10T12:33:38;56.45;;;9.65;;
65684;SDS011;52405;50.844;-1.062;2023-01-10T12:39:07;61.28;;;9.77;;
65684;SDS011;52405;50.844;-1.062;2023-01-10T12:52:43;52.20;;;10.70;;
65684;SDS011;52405;50.844;-1.062;2023-01-10T12:55:14;52.05;;;9.13;;
65684;SDS011;52405;50.844;-1.062;2023-01-10T12:57:41;61.83;;;13.18;;
65684;SDS011;52405;50.844;-1.062;2023-01-10T13:00:19;55.88;;;10.50;;
65684;SDS011;52405;50.844;-1.062;2023-01-10T13:02:54;46.72;;;12.98;;
65684;SDS011;52405;50.844;-1.062;2023-01-10T13:05:24;55.47;;;11.43;;
65684;SDS011;52405;50.844;-1.062;2023-01-10T13:07:53;52.95;;;12.43;;
65684;SDS011;52405;50.844;-1.062;2023-01-10T13:10:24;54.97;;;11.80;;
65684;SDS011;52405;50.844;-1.062;2023-01-10T13:12:52;60.25;;;10.93;;
65684;SDS011;52405;50.844;-1.062;2023-01-10T13:15:26;50.92;;;11.88;;
65684;SDS011;52405;50.844;-1.062;2023-01-10T13:18:01;49.45;;;10.65;;
65684;SDS011;52405;50.844;-1.062;2023-01-10T13:20:36;53.45;;;11.60;;
65684;SDS011;52405;50.844;-1.062;2023-01-10T13:25:53;46.22;;;8.57;;
65684;SDS011;52405;50.844;-1.062;2023-01-10T13:28:24;48.95;;;10.90;;
65684;SDS011;52405;50.844;-1.062;2023-01-10T13:30:53;51.60;;;10.38;;
65684;SDS011;52405;50.844;-1.062;2023-01-10T13:35:53;58.15;;;12.00;;
65684;SDS011;52405;50.844;-1.062;2023-01-10T13:38:49;47.58;;;8.82;;
65684;SDS011;52405;50.844;-1.062;2023-01-10T13:41:18;44.80;;;10.98;;
65684;SDS011;52405;50.844;-1.062;2023-01-10T13:44:10;53.25;;;9.50;;
65684;SDS011;52405;50.844;-1.062;2023-01-10T13:46:47;50.95;;;8.93;;
65684;SDS011;52405;50.844;-1.062;2023-01-10T13:49:25;54.20;;;11.48;;
65684;SDS011;52405;50.844;-1.062;2023-01-10T13:52:19;48.50;;;10.98;;
65684;SDS011;52405;50.844;-1.062;2023-01-10T13:54:57;49.58;;;11.27;;
65684;SDS011;52405;50.844;-1.062;2023-01-10T14:00:20;51.50;;;9.15;;
65684;SDS011;52405;50.844;-1.062;2023-01-10T14:03:06;50.17;;;11.55;;
65684;SDS011;52405;50.844;-1.062;2023-01-10T14:05:34;54.85;;;10.85;;
65684;SDS011;52405;50.844;-1.062;2023-01-10T14:08:00;49.35;;;12.02;;
65684;SDS011;52405;50.844;-1.062;2023-01-10T14:10:26;51.63;;;11.05;;
65684;SDS011;52405;50.844;-1.062;2023-01-10T14:13:01;64.50;;;15.20;;
65684;SDS011;52405;50.844;-1.062;2023-01-10T14:15:40;60.67;;;11.35;;
65684;SDS011;52405;50.844;-1.062;2023-01-10T14:18:24;61.93;;;12.23;;
65684;SDS011;52405;50.844;-1.062;2023-01-10T14:21:02;53.85;;;10.18;;
65684;SDS011;52405;50.844;-1.062;2023-01-10T14:23:33;52.00;;;10.68;;
65684;SDS011;52405;50.844;-1.062;2023-01-10T14:26:13;63.47;;;13.93;;
65684;SDS011;52405;50.844;-1.062;2023-01-10T14:28:48;48.15;;;10.10;;
65684;SDS011;52405;50.844;-1.062;2023-01-10T14:31:17;59.45;;;12.38;;
65684;SDS011;52405;50.844;-1.062;2023-01-10T14:33:45;57.28;;;11.13;;
65684;SDS011;52405;50.844;-1.062;2023-01-10T14:36:18;60.80;;;13.10;;
65684;SDS011;52405;50.844;-1.062;2023-01-10T14:38:51;50.58;;;10.80;;
65684;SDS011;52405;50.844;-1.062;2023-01-10T14:41:43;65.88;;;11.55;;
65684;SDS011;52405;50.844;-1.062;2023-01-10T14:44:18;52.40;;;10.85;;
65684;SDS011;52405;50.844;-1.062;2023-01-10T14:46:52;51.05;;;11.35;;
65684;SDS011;52405;50.844;-1.062;2023-01-10T14:49:28;50.67;;;11.70;;
65684;SDS011;52405;50.844;-1.062;2023-01-10T14:52:12;54.60;;;11.50;;
65684;SDS011;52405;50.844;-1.062;2023-01-10T14:54:43;56.75;;;12.00;;
65684;SDS011;52405;50.844;-1.062;2023-01-10T14:57:21;58.08;;;13.27;;
65684;SDS011;52405;50.844;-1.062;2023-01-10T14:59:48;61.70;;;11.18;;
65684;SDS011;52405;50.844;-1.062;2023-01-10T15:02:19;53.15;;;11.15;;
65684;SDS011;52405;50.844;-1.062;2023-01-10T15:04:53;56.25;;;14.13;;
65684;SDS011;52405;50.844;-1.062;2023-01-10T15:07:19;52.50;;;13.57;;
65684;SDS011;52405;50.844;-1.062;2023-01-10T15:09:52;61.28;;;12.85;;
65684;SDS011;52405;50.844;-1.062;2023-01-10T15:12:21;52.92;;;10.05;;
65684;SDS011;52405;50.844;-1.062;2023-01-10T15:14:54;56.70;;;10.10;;
65684;SDS011;52405;50.844;-1.062;2023-01-10T15:17:29;46.33;;;10.77;;
65684;SDS011;52405;50.844;-1.062;2023-01-10T15:19:55;49.95;;;11.57;;
65684;SDS011;52405;50.844;-1.062;2023-01-10T15:24:59;62.85;;;10.02;;
65684;SDS011;52405;50.844;-1.062;2023-01-10T15:27:25;52.97;;;10.60;;
65684;SDS011;52405;50.844;-1.062;2023-01-10T15:29:54;56.90;;;11.43;;
65684;SDS011;52405;50.844;-1.062;2023-01-10T15:34:52;48.03;;;9.02;;
65684;SDS011;52405;50.844;-1.062;2023-01-10T15:37:21;51.55;;;9.95;;
65684;SDS011;52405;50.844;-1.062;2023-01-10T15:39:58;52.15;;;10.05;;
65684;SDS011;52405;50.844;-1.062;2023-01-10T15:42:24;42.80;;;9.98;;
65684;SDS011;52405;50.844;-1.062;2023-01-10T15:44:51;43.88;;;9.38;;
65684;SDS011;52405;50.844;-1.062;2023-01-10T15:52:46;48.30;;;11.60;;
65684;SDS011;52405;50.844;-1.062;2023-01-10T15:55:33;38.83;;;9.75;;
65684;SDS011;52405;50.844;-1.062;2023-01-10T15:58:13;52.88;;;10.98;;
65684;SDS011;52405;50.844;-1.062;2023-01-10T16:00:46;50.97;;;9.60;;
65684;SDS011;52405;50.844;-1.062;2023-01-10T16:03:17;44.65;;;7.90;;
65684;SDS011;52405;50.844;-1.062;2023-01-10T16:05:52;30.27;;;8.15;;
65684;SDS011;52405;50.844;-1.062;2023-01-10T16:08:21;38.53;;;10.90;;
65684;SDS011;52405;50.844;-1.062;2023-01-10T16:10:58;42.88;;;7.95;;
65684;SDS011;52405;50.844;-1.062;2023-01-10T16:13:26;41.33;;;7.90;;
65684;SDS011;52405;50.844;-1.062;2023-01-10T16:15:52;40.63;;;7.97;;
65684;SDS011;52405;50.844;-1.062;2023-01-10T16:18:19;37.90;;;8.23;;
65684;SDS011;52405;50.844;-1.062;2023-01-10T16:20:46;49.13;;;7.80;;